createdAt,value
2022-11-13T00:00:06.069Z,0
2022-11-13T00:01:06.079Z,0
2022-11-13T00:02:06.173Z,0
2022-11-13T00:03:06.057Z,0
2022-11-13T00:04:06.072Z,0
2022-11-13T00:05:06.052Z,0
2022-11-13T00:06:06.058Z,0
2022-11-13T00:07:06.120Z,0
2022-11-13T00:08:06.049Z,0
2022-11-13T00:09:06.058Z,0
2022-11-13T00:10:06.056Z,0
2022-11-13T00:11:06.063Z,0
2022-11-13T00:12:06.075Z,0
2022-11-13T00:13:06.056Z,0
2022-11-13T00:14:06.059Z,0
2022-11-13T00:15:06.128Z,0
2022-11-13T00:16:06.060Z,0
2022-11-13T00:17:06.054Z,0
2022-11-13T00:18:06.067Z,0
2022-11-13T00:19:06.060Z,0
2022-11-13T00:20:06.063Z,0
2022-11-13T00:21:06.074Z,0
2022-11-13T00:22:06.110Z,0
2022-11-13T00:23:06.049Z,0
2022-11-13T00:24:06.053Z,0
2022-11-13T00:25:06.066Z,0
2022-11-13T00:26:06.072Z,0
2022-11-13T00:27:06.077Z,0
2022-11-13T00:28:06.056Z,0
2022-11-13T00:29:06.067Z,0
2022-11-13T00:30:06.048Z,0
2022-11-13T00:31:06.111Z,0
2022-11-13T00:32:06.061Z,0
2022-11-13T00:33:06.063Z,0
2022-11-13T00:34:25.966Z,0
2022-11-13T00:35:06.069Z,0
2022-11-13T00:36:06.073Z,0
2022-11-13T00:37:06.068Z,0
2022-11-13T00:38:06.057Z,0
2022-11-13T00:39:06.065Z,0
2022-11-13T00:40:06.064Z,0
2022-11-13T00:41:06.078Z,0
2022-11-13T00:42:06.076Z,0
2022-11-13T00:43:06.069Z,0
2022-11-13T00:44:06.071Z,0
2022-11-13T00:45:06.063Z,0
2022-11-13T00:46:06.078Z,0
2022-11-13T00:47:06.218Z,0
2022-11-13T00:48:06.059Z,0
2022-11-13T00:49:06.066Z,0
2022-11-13T00:50:06.071Z,0
2022-11-13T00:51:06.070Z,0
2022-11-13T00:52:06.051Z,0
2022-11-13T00:53:06.063Z,0
2022-11-13T00:54:06.058Z,0
2022-11-13T00:55:06.051Z,0
2022-11-13T00:56:06.076Z,0
2022-11-13T00:57:06.077Z,0
2022-11-13T00:58:06.052Z,0
2022-11-13T00:59:06.070Z,0
2022-11-13T01:00:06.055Z,0
2022-11-13T01:01:06.073Z,0
2022-11-13T01:02:06.115Z,0
2022-11-13T01:03:06.061Z,0
2022-11-13T01:04:06.059Z,0
2022-11-13T01:05:06.063Z,0
2022-11-13T01:06:06.086Z,0
2022-11-13T01:07:06.092Z,0
2022-11-13T01:08:06.060Z,0
2022-11-13T01:09:06.082Z,0
2022-11-13T01:10:06.052Z,0
2022-11-13T01:11:06.070Z,0
2022-11-13T01:12:06.074Z,0
2022-11-13T01:13:06.061Z,0
2022-11-13T01:14:06.044Z,0
2022-11-13T01:15:06.072Z,0
2022-11-13T01:16:06.083Z,0
2022-11-13T01:17:06.051Z,0
2022-11-13T01:18:06.055Z,0
2022-11-13T01:19:06.055Z,0
2022-11-13T01:20:06.064Z,0
2022-11-13T01:21:06.074Z,0
2022-11-13T01:22:06.059Z,0
2022-11-13T01:23:06.054Z,0
2022-11-13T01:24:06.053Z,0
2022-11-13T01:25:06.149Z,0
2022-11-13T01:26:06.075Z,0
2022-11-13T01:27:06.067Z,0
2022-11-13T01:28:06.049Z,0
2022-11-13T01:29:06.051Z,0
2022-11-13T01:30:06.056Z,0
2022-11-13T01:31:06.075Z,0
2022-11-13T01:32:06.055Z,0
2022-11-13T01:33:06.055Z,0
2022-11-13T01:34:06.055Z,0
2022-11-13T01:35:06.054Z,0
2022-11-13T01:36:06.071Z,0
2022-11-13T01:37:06.062Z,0
2022-11-13T01:38:06.058Z,0
2022-11-13T01:39:06.055Z,0
2022-11-13T01:40:06.060Z,0
2022-11-13T01:41:06.085Z,0
2022-11-13T01:42:06.075Z,0
2022-11-13T01:43:06.059Z,0
2022-11-13T01:44:06.059Z,0
2022-11-13T01:45:06.067Z,0
2022-11-13T01:46:06.084Z,0
2022-11-13T01:47:06.068Z,0
2022-11-13T01:48:06.058Z,0
2022-11-13T01:49:06.063Z,0
2022-11-13T01:50:06.079Z,0
2022-11-13T01:51:06.072Z,0
2022-11-13T01:52:06.064Z,0
2022-11-13T01:53:06.072Z,0
2022-11-13T01:54:06.061Z,0
2022-11-13T01:55:06.061Z,0
2022-11-13T01:56:06.084Z,0
2022-11-13T01:57:06.080Z,0
2022-11-13T01:58:06.059Z,0
2022-11-13T01:59:06.057Z,0
2022-11-13T02:00:06.056Z,0
2022-11-13T02:01:06.069Z,0
2022-11-13T02:02:06.113Z,0
2022-11-13T02:03:06.057Z,0
2022-11-13T02:04:06.067Z,0
2022-11-13T02:05:06.068Z,0
2022-11-13T02:06:06.079Z,0
2022-11-13T02:07:06.146Z,0
2022-11-13T02:08:06.069Z,0
2022-11-13T02:09:06.063Z,0
2022-11-13T02:10:06.064Z,0
2022-11-13T02:11:06.078Z,0
2022-11-13T02:12:06.090Z,0
2022-11-13T02:13:06.077Z,0
2022-11-13T02:14:06.060Z,0
2022-11-13T02:15:06.068Z,0
2022-11-13T02:16:06.079Z,0
2022-11-13T02:17:06.064Z,0
2022-11-13T02:18:06.074Z,0
2022-11-13T02:19:06.097Z,0
2022-11-13T02:20:06.072Z,0
2022-11-13T02:21:06.090Z,0
2022-11-13T02:22:06.071Z,0
2022-11-13T02:23:06.063Z,0
2022-11-13T02:24:06.062Z,0
2022-11-13T02:25:06.058Z,0
2022-11-13T02:26:06.076Z,0
2022-11-13T02:27:06.077Z,0
2022-11-13T02:28:06.149Z,0
2022-11-13T02:29:06.057Z,0
2022-11-13T02:30:07.482Z,0
2022-11-13T02:31:06.084Z,0
2022-11-13T02:32:06.058Z,0
2022-11-13T02:33:06.060Z,0
2022-11-13T02:34:06.081Z,0
2022-11-13T02:35:06.063Z,0
2022-11-13T02:36:06.078Z,0
2022-11-13T02:37:06.052Z,0
2022-11-13T02:38:06.059Z,0
2022-11-13T02:39:06.061Z,0
2022-11-13T02:40:06.058Z,0
2022-11-13T02:41:06.078Z,0
2022-11-13T02:42:06.072Z,0
2022-11-13T02:43:06.055Z,0
2022-11-13T02:44:06.053Z,0
2022-11-13T02:45:06.061Z,0
2022-11-13T02:46:06.078Z,0
2022-11-13T02:47:06.062Z,0
2022-11-13T02:48:06.056Z,0
2022-11-13T02:49:06.068Z,0
2022-11-13T02:50:06.068Z,0
2022-11-13T02:51:06.090Z,0
2022-11-13T02:52:06.069Z,0
2022-11-13T02:53:06.076Z,0
2022-11-13T02:54:06.063Z,0
2022-11-13T02:55:06.064Z,0
2022-11-13T02:56:06.080Z,0
2022-11-13T02:57:06.081Z,0
2022-11-13T02:58:06.072Z,0
2022-11-13T02:59:06.062Z,0
2022-11-13T03:00:12.272Z,0
2022-11-13T03:01:06.077Z,0
2022-11-13T03:02:06.145Z,0
2022-11-13T03:03:06.058Z,0
2022-11-13T03:04:06.061Z,0
2022-11-13T03:05:11.817Z,0
2022-11-13T03:06:06.094Z,0
2022-11-13T03:07:06.104Z,0
2022-11-13T03:08:06.072Z,0
2022-11-13T03:09:06.070Z,0
2022-11-13T03:10:06.070Z,0
2022-11-13T03:11:06.136Z,0
2022-11-13T03:12:06.076Z,0
2022-11-13T03:13:06.074Z,0
2022-11-13T03:14:06.070Z,0
2022-11-13T03:15:06.070Z,0
2022-11-13T03:16:06.070Z,0
2022-11-13T03:17:06.067Z,0
2022-11-13T03:18:06.062Z,0
2022-11-13T03:19:06.056Z,0
2022-11-13T03:20:06.076Z,0
2022-11-13T03:21:06.089Z,0
2022-11-13T03:22:06.070Z,0
2022-11-13T03:23:06.066Z,0
2022-11-13T03:24:06.074Z,0
2022-11-13T03:25:09.844Z,0
2022-11-13T03:26:06.084Z,0
2022-11-13T03:27:06.095Z,0
2022-11-13T03:28:06.069Z,0
2022-11-13T03:29:06.073Z,0
2022-11-13T03:30:06.055Z,0
2022-11-13T03:31:06.074Z,0
2022-11-13T03:32:06.062Z,0
2022-11-13T03:33:06.064Z,0
2022-11-13T03:34:06.058Z,0
2022-11-13T03:35:06.053Z,0
2022-11-13T03:36:06.073Z,0
2022-11-13T03:37:06.064Z,0
2022-11-13T03:38:06.062Z,0
2022-11-13T03:39:06.059Z,0
2022-11-13T03:40:06.058Z,0
2022-11-13T03:41:06.081Z,0
2022-11-13T03:42:06.081Z,0
2022-11-13T03:43:06.058Z,0
2022-11-13T03:44:06.058Z,0
2022-11-13T03:45:06.054Z,0
2022-11-13T03:46:06.070Z,0
2022-11-13T03:47:06.057Z,0
2022-11-13T03:48:06.056Z,0
2022-11-13T03:49:06.053Z,0
2022-11-13T03:50:06.053Z,0
2022-11-13T03:51:06.078Z,0
2022-11-13T03:52:06.058Z,0
2022-11-13T03:53:06.065Z,0
2022-11-13T03:54:06.070Z,0
2022-11-13T03:55:06.078Z,0
2022-11-13T03:56:06.083Z,0
2022-11-13T03:57:06.083Z,0
2022-11-13T03:58:06.077Z,0
2022-11-13T03:59:06.068Z,0
2022-11-13T04:00:06.058Z,0
2022-11-13T04:01:06.076Z,0
2022-11-13T04:02:06.126Z,0
2022-11-13T04:03:06.070Z,0
2022-11-13T04:04:06.065Z,0
2022-11-13T04:05:06.076Z,0
2022-11-13T04:06:06.095Z,0
2022-11-13T04:07:06.140Z,0
2022-11-13T04:08:06.059Z,0
2022-11-13T04:09:06.074Z,0
2022-11-13T04:10:06.067Z,0
2022-11-13T04:11:06.090Z,0
2022-11-13T04:12:06.080Z,0
2022-11-13T04:13:06.062Z,0
2022-11-13T04:14:06.064Z,0
2022-11-13T04:15:06.061Z,0
2022-11-13T04:16:06.076Z,0
2022-11-13T04:17:06.059Z,0
2022-11-13T04:18:06.068Z,0
2022-11-13T04:19:06.055Z,0
2022-11-13T04:20:06.053Z,0
2022-11-13T04:21:06.242Z,0
2022-11-13T04:22:06.064Z,0
2022-11-13T04:23:06.063Z,0
2022-11-13T04:24:06.072Z,0
2022-11-13T04:25:06.067Z,0
2022-11-13T04:26:06.084Z,0
2022-11-13T04:27:06.092Z,0
2022-11-13T04:28:06.113Z,0
2022-11-13T04:29:06.067Z,0
2022-11-13T04:30:06.057Z,0
2022-11-13T04:31:06.070Z,0
2022-11-13T04:32:06.061Z,0
2022-11-13T04:33:06.056Z,0
2022-11-13T04:34:06.076Z,0
2022-11-13T04:35:06.053Z,0
2022-11-13T04:36:06.079Z,0
2022-11-13T04:37:06.068Z,0
2022-11-13T04:38:06.071Z,0
2022-11-13T04:39:06.065Z,0
2022-11-13T04:40:06.057Z,0
2022-11-13T04:41:06.080Z,0
2022-11-13T04:42:06.074Z,0
2022-11-13T04:43:06.056Z,0
2022-11-13T04:44:06.064Z,0
2022-11-13T04:45:06.061Z,0
2022-11-13T04:46:06.071Z,0
2022-11-13T04:47:06.052Z,0
2022-11-13T04:48:06.052Z,0
2022-11-13T04:49:06.056Z,0
2022-11-13T04:50:06.051Z,0
2022-11-13T04:51:06.069Z,0
2022-11-13T04:52:06.067Z,0
2022-11-13T04:53:06.051Z,0
2022-11-13T04:54:06.061Z,0
2022-11-13T04:55:06.060Z,0
2022-11-13T04:56:06.075Z,0
2022-11-13T04:57:06.073Z,0
2022-11-13T04:58:06.063Z,0
2022-11-13T04:59:06.057Z,0
2022-11-13T05:00:06.052Z,0
2022-11-13T05:01:06.101Z,0
2022-11-13T05:02:06.091Z,0
2022-11-13T05:03:06.053Z,0
2022-11-13T05:04:06.071Z,0
2022-11-13T05:05:06.073Z,0
2022-11-13T05:06:06.087Z,0
2022-11-13T05:07:06.115Z,0
2022-11-13T05:08:06.062Z,0
2022-11-13T05:09:06.079Z,0
2022-11-13T05:10:06.066Z,0
2022-11-13T05:11:06.076Z,0
2022-11-13T05:12:06.074Z,0
2022-11-13T05:13:06.060Z,0
2022-11-13T05:14:06.065Z,0
2022-11-13T05:15:06.065Z,0
2022-11-13T05:16:06.078Z,0
2022-11-13T05:17:06.061Z,0
2022-11-13T05:18:06.062Z,0
2022-11-13T05:19:06.066Z,0
2022-11-13T05:20:06.066Z,0
2022-11-13T05:21:06.076Z,0
2022-11-13T05:22:06.059Z,0
2022-11-13T05:23:06.062Z,0
2022-11-13T05:24:06.061Z,0
2022-11-13T05:25:06.055Z,0
2022-11-13T05:26:06.091Z,0
2022-11-13T05:27:06.081Z,0
2022-11-13T05:28:06.063Z,0
2022-11-13T05:29:06.061Z,0
2022-11-13T05:30:06.070Z,0
2022-11-13T05:31:06.112Z,0
2022-11-13T05:32:06.075Z,0
2022-11-13T05:33:06.066Z,0
2022-11-13T05:34:06.357Z,0
2022-11-13T05:35:06.062Z,0
2022-11-13T05:36:06.081Z,0
2022-11-13T05:37:06.069Z,0
2022-11-13T05:38:06.059Z,0
2022-11-13T05:39:06.056Z,0
2022-11-13T05:40:06.068Z,0
2022-11-13T05:41:06.090Z,1
2022-11-13T05:42:06.081Z,1
2022-11-13T05:43:06.064Z,3
2022-11-13T05:44:06.142Z,5
2022-11-13T05:45:06.061Z,5
2022-11-13T05:46:06.073Z,5
2022-11-13T05:47:06.066Z,9
2022-11-13T05:48:06.062Z,11
2022-11-13T05:49:06.058Z,14
2022-11-13T05:50:06.065Z,16
2022-11-13T05:51:06.066Z,18
2022-11-13T05:52:06.051Z,23
2022-11-13T05:53:06.055Z,27
2022-11-13T05:54:06.055Z,33
2022-11-13T05:55:06.054Z,38
2022-11-13T05:56:06.076Z,46
2022-11-13T05:57:06.077Z,51
2022-11-13T05:58:06.056Z,58
2022-11-13T05:59:06.054Z,68
2022-11-13T06:00:06.053Z,77
2022-11-13T06:01:06.072Z,88
2022-11-13T06:02:06.110Z,99
2022-11-13T06:03:06.058Z,110
2022-11-13T06:04:06.057Z,123
2022-11-13T06:05:06.069Z,138
2022-11-13T06:06:06.086Z,152
2022-11-13T06:07:06.113Z,169
2022-11-13T06:08:06.057Z,184
2022-11-13T06:09:06.068Z,184
2022-11-13T06:10:06.076Z,221
2022-11-13T06:11:06.075Z,239
2022-11-13T06:12:06.086Z,261
2022-11-13T06:13:06.064Z,285
2022-11-13T06:14:06.062Z,304
2022-11-13T06:15:06.125Z,328
2022-11-13T06:16:06.080Z,352
2022-11-13T06:17:06.071Z,376
2022-11-13T06:18:06.064Z,401
2022-11-13T06:19:06.064Z,427
2022-11-13T06:20:06.063Z,455
2022-11-13T06:21:06.079Z,484
2022-11-13T06:22:06.061Z,516
2022-11-13T06:23:06.059Z,543
2022-11-13T06:24:06.054Z,578
2022-11-13T06:25:06.074Z,608
2022-11-13T06:26:06.082Z,645
2022-11-13T06:27:06.084Z,674
2022-11-13T06:28:06.068Z,705
2022-11-13T06:29:06.068Z,739
2022-11-13T06:30:06.060Z,770
2022-11-13T06:31:06.077Z,787
2022-11-13T06:32:06.068Z,799
2022-11-13T06:33:06.064Z,823
2022-11-13T06:34:06.064Z,857
2022-11-13T06:35:06.070Z,899
2022-11-13T06:36:06.073Z,952
2022-11-13T06:37:06.061Z,1015
2022-11-13T06:38:06.061Z,1076
2022-11-13T06:39:06.105Z,1129
2022-11-13T06:40:06.057Z,1174
2022-11-13T06:41:06.071Z,1214
2022-11-13T06:42:06.179Z,1260
2022-11-13T06:43:06.057Z,1306
2022-11-13T06:44:06.073Z,1336
2022-11-13T06:45:06.062Z,1375
2022-11-13T06:46:06.089Z,1422
2022-11-13T06:47:06.071Z,1461
2022-11-13T06:48:06.060Z,1478
2022-11-13T06:49:06.066Z,1500
2022-11-13T06:50:06.057Z,1539
2022-11-13T06:51:06.080Z,1590
2022-11-13T06:52:06.067Z,1666
2022-11-13T06:53:06.059Z,1741
2022-11-13T06:54:06.065Z,1841
2022-11-13T06:55:06.083Z,1953
2022-11-13T06:56:06.072Z,1953
2022-11-13T06:57:06.097Z,2307
2022-11-13T06:58:06.058Z,2619
2022-11-13T06:59:08.458Z,3054
2022-11-13T07:00:06.083Z,3435
2022-11-13T07:01:06.108Z,3758
2022-11-13T07:02:06.055Z,4156
2022-11-13T07:03:06.063Z,4593
2022-11-13T07:04:06.062Z,5221
2022-11-13T07:05:06.051Z,6014
2022-11-13T07:06:06.076Z,6851
2022-11-13T07:07:06.079Z,7840
2022-11-13T07:08:06.064Z,8747
2022-11-13T07:09:06.065Z,8747
2022-11-13T07:10:06.059Z,9848
2022-11-13T07:11:06.067Z,10139
2022-11-13T07:12:06.073Z,10412
2022-11-13T07:13:06.057Z,10364
2022-11-13T07:14:06.060Z,10567
2022-11-13T07:15:06.065Z,11516
2022-11-13T07:16:15.928Z,10780
2022-11-13T07:17:09.550Z,11156
2022-11-13T07:18:06.054Z,11634
2022-11-13T07:19:06.076Z,11590
2022-11-13T07:20:06.075Z,11510
2022-11-13T07:21:06.079Z,11556
2022-11-13T07:22:06.067Z,11702
2022-11-13T07:23:06.064Z,11741
2022-11-13T07:24:06.062Z,11708
2022-11-13T07:25:06.061Z,12060
2022-11-13T07:26:06.088Z,12659
2022-11-13T07:27:06.076Z,12699
2022-11-13T07:28:06.058Z,12725
2022-11-13T07:29:06.056Z,12677
2022-11-13T07:30:06.085Z,12998
2022-11-13T07:31:06.080Z,12801
2022-11-13T07:32:06.063Z,13016
2022-11-13T07:33:06.054Z,13066
2022-11-13T07:34:06.054Z,12557
2022-11-13T07:35:06.054Z,12576
2022-11-13T07:36:06.073Z,12329
2022-11-13T07:37:06.063Z,12952
2022-11-13T07:38:06.067Z,13318
2022-11-13T07:39:06.059Z,13687
2022-11-13T07:40:06.078Z,13953
2022-11-13T07:41:06.076Z,13954
2022-11-13T07:42:06.084Z,14183
2022-11-13T07:43:06.068Z,14203
2022-11-13T07:44:09.127Z,15221
2022-11-13T07:45:06.059Z,15261
2022-11-13T07:46:06.074Z,15322
2022-11-13T07:47:06.062Z,15234
2022-11-13T07:48:06.087Z,15123
2022-11-13T07:49:06.070Z,15484
2022-11-13T07:50:10.661Z,15678
2022-11-13T07:51:06.067Z,15119
2022-11-13T07:52:06.064Z,15193
2022-11-13T07:53:06.070Z,14686
2022-11-13T07:54:06.075Z,14719
2022-11-13T07:55:06.062Z,14264
2022-11-13T07:56:06.076Z,14419
2022-11-13T07:57:06.079Z,13864
2022-11-13T07:58:06.067Z,13866
2022-11-13T07:59:06.062Z,13261
2022-11-13T08:00:06.086Z,13147
2022-11-13T08:01:06.184Z,13274
2022-11-13T08:02:06.061Z,13162
2022-11-13T08:03:06.060Z,13296
2022-11-13T08:04:06.069Z,12812
2022-11-13T08:05:06.065Z,12824
2022-11-13T08:06:06.169Z,12965
2022-11-13T08:07:06.089Z,12944
2022-11-13T08:08:06.058Z,12723
2022-11-13T08:09:06.066Z,12723
2022-11-13T08:10:06.055Z,12397
2022-11-13T08:11:06.069Z,12397
2022-11-13T08:12:06.099Z,11800
2022-11-13T08:13:06.057Z,11602
2022-11-13T08:14:06.051Z,11982
2022-11-13T08:15:10.658Z,12013
2022-11-13T08:16:06.091Z,11945
2022-11-13T08:17:06.075Z,12336
2022-11-13T08:18:06.079Z,12329
2022-11-13T08:19:06.095Z,12329
2022-11-13T08:20:06.071Z,12364
2022-11-13T08:21:09.308Z,11980
2022-11-13T08:22:06.067Z,11953
2022-11-13T08:23:06.076Z,12231
2022-11-13T08:24:06.091Z,12299
2022-11-13T08:25:06.068Z,12065
2022-11-13T08:26:06.054Z,11840
2022-11-13T08:27:06.069Z,11796
2022-11-13T08:28:08.801Z,11774
2022-11-13T08:29:06.060Z,11851
2022-11-13T08:30:06.064Z,11973
2022-11-13T08:31:06.127Z,12135
2022-11-13T08:32:06.070Z,11848
2022-11-13T08:33:06.052Z,11637
2022-11-13T08:34:06.063Z,11420
2022-11-13T08:35:06.068Z,11223
2022-11-13T08:36:06.087Z,11179
2022-11-13T08:37:06.076Z,11249
2022-11-13T08:38:06.066Z,11326
2022-11-13T08:39:06.064Z,11407
2022-11-13T08:40:06.063Z,11359
2022-11-13T08:41:09.286Z,10803
2022-11-13T08:42:06.082Z,10830
2022-11-13T08:43:06.068Z,11282
2022-11-13T08:44:06.060Z,11464
2022-11-13T08:45:06.071Z,11354
2022-11-13T08:46:06.071Z,11344
2022-11-13T08:47:06.085Z,11440
2022-11-13T08:48:06.072Z,11484
2022-11-13T08:49:06.073Z,11667
2022-11-13T08:50:06.072Z,11743
2022-11-13T08:51:06.063Z,11470
2022-11-13T08:52:06.074Z,11916
2022-11-13T08:53:06.059Z,10979
2022-11-13T08:54:06.097Z,12209
2022-11-13T08:55:06.066Z,12356
2022-11-13T08:56:06.064Z,11496
2022-11-13T08:57:06.304Z,11702
2022-11-13T08:58:06.085Z,11846
2022-11-13T08:59:06.064Z,12555
2022-11-13T09:00:06.084Z,12305
2022-11-13T09:01:06.064Z,12290
2022-11-13T09:02:06.075Z,12611
2022-11-13T09:03:06.064Z,12839
2022-11-13T09:04:06.140Z,13064
2022-11-13T09:05:06.055Z,13237
2022-11-13T09:06:06.065Z,13451
2022-11-13T09:07:06.204Z,13394
2022-11-13T09:08:06.069Z,14076
2022-11-13T09:09:06.077Z,14076
2022-11-13T09:10:06.065Z,13342
2022-11-13T09:11:06.089Z,13471
2022-11-13T09:12:06.080Z,13870
2022-11-13T09:13:06.069Z,14552
2022-11-13T09:14:06.075Z,15012
2022-11-13T09:15:06.059Z,15328
2022-11-13T09:16:06.072Z,15639
2022-11-13T09:17:06.161Z,15917
2022-11-13T09:18:06.064Z,15963
2022-11-13T09:19:06.067Z,16594
2022-11-13T09:20:08.684Z,17569
2022-11-13T09:21:06.070Z,17987
2022-11-13T09:22:06.065Z,18367
2022-11-13T09:23:06.072Z,18645
2022-11-13T09:24:06.059Z,18946
2022-11-13T09:25:06.055Z,19117
2022-11-13T09:26:06.063Z,18872
2022-11-13T09:27:06.123Z,18338
2022-11-13T09:28:06.085Z,17604
2022-11-13T09:29:06.062Z,17342
2022-11-13T09:30:06.078Z,17154
2022-11-13T09:31:06.057Z,17136
2022-11-13T09:32:06.101Z,16957
2022-11-13T09:33:06.080Z,17119
2022-11-13T09:34:06.081Z,16946
2022-11-13T09:35:06.061Z,16692
2022-11-13T09:36:06.054Z,16959
2022-11-13T09:37:06.065Z,16953
2022-11-13T09:38:11.214Z,17256
2022-11-13T09:39:06.058Z,17394
2022-11-13T09:40:06.056Z,17541
2022-11-13T09:41:06.056Z,17490
2022-11-13T09:42:06.072Z,17917
2022-11-13T09:43:06.056Z,17473
2022-11-13T09:44:06.060Z,17646
2022-11-13T09:45:06.064Z,17574
2022-11-13T09:46:06.053Z,18669
2022-11-13T09:47:06.069Z,16903
2022-11-13T09:48:06.065Z,16577
2022-11-13T09:49:06.094Z,16828
2022-11-13T09:50:06.082Z,16492
2022-11-13T09:51:06.106Z,16264
2022-11-13T09:52:06.762Z,16192
2022-11-13T09:53:06.064Z,16258
2022-11-13T09:54:06.102Z,16421
2022-11-13T09:55:06.059Z,16655
2022-11-13T09:56:06.060Z,16765
2022-11-13T09:57:06.077Z,16983
2022-11-13T09:58:06.057Z,16994
2022-11-13T09:59:06.068Z,16636
2022-11-13T10:00:06.091Z,16653
2022-11-13T10:01:06.088Z,16201
2022-11-13T10:02:06.083Z,16266
2022-11-13T10:03:06.071Z,16363
2022-11-13T10:04:06.059Z,16675
2022-11-13T10:05:06.055Z,16566
2022-11-13T10:06:06.055Z,16800
2022-11-13T10:07:06.145Z,17176
2022-11-13T10:08:06.062Z,17147
2022-11-13T10:09:06.053Z,17147
2022-11-13T10:10:06.075Z,16835
2022-11-13T10:11:06.052Z,17147
2022-11-13T10:12:06.090Z,16398
2022-11-13T10:13:06.060Z,16631
2022-11-13T10:14:06.066Z,16765
2022-11-13T10:15:06.061Z,17117
2022-11-13T10:16:06.063Z,18070
2022-11-13T10:17:51.634Z,17591
2022-11-13T10:18:50.396Z,16990
2022-11-13T10:19:50.369Z,16909
2022-11-13T10:20:50.691Z,15077
2022-11-13T10:21:54.963Z,16852
2022-11-13T10:22:50.407Z,16588
2022-11-13T10:23:50.356Z,16881
2022-11-13T10:24:50.364Z,15711
2022-11-13T10:25:50.350Z,14859
2022-11-13T10:26:50.368Z,14677
2022-11-13T10:27:50.508Z,17125
2022-11-13T10:28:51.444Z,17125
2022-11-13T10:29:50.356Z,16417
2022-11-13T10:30:50.353Z,15987
2022-11-13T10:31:50.427Z,16590
2022-11-13T10:32:50.345Z,16021
2022-11-13T10:33:50.357Z,14811
2022-11-13T10:34:50.355Z,16328
2022-11-13T10:35:50.374Z,15833
2022-11-13T10:36:50.355Z,15152
2022-11-13T10:37:50.343Z,15892
2022-11-13T10:38:50.360Z,15615
2022-11-13T10:39:50.356Z,11440
2022-11-13T10:40:50.328Z,11440
2022-11-13T10:41:50.348Z,14198
2022-11-13T10:42:50.434Z,12021
2022-11-13T10:43:50.329Z,14824
2022-11-13T10:44:50.361Z,15053
2022-11-13T10:45:50.335Z,15053
2022-11-13T10:46:50.358Z,15176
2022-11-13T10:48:03.799Z,5701
2022-11-13T10:48:50.352Z,15753
2022-11-13T10:49:50.393Z,7553
2022-11-13T10:50:50.343Z,15446
2022-11-13T10:51:50.362Z,13077
2022-11-13T10:52:50.550Z,7214
2022-11-13T10:53:50.350Z,15309
2022-11-13T10:54:50.352Z,8019
2022-11-13T10:55:50.332Z,8255
2022-11-13T10:56:50.369Z,13230
2022-11-13T10:57:55.291Z,9157
2022-11-13T10:58:50.347Z,7455
2022-11-13T10:59:50.626Z,6646
2022-11-13T11:00:50.498Z,6853
2022-11-13T11:01:50.368Z,12017
2022-11-13T11:02:50.342Z,7575
2022-11-13T11:03:50.336Z,14039
2022-11-13T11:04:50.595Z,7175
2022-11-13T11:05:50.348Z,7175
2022-11-13T11:07:19.144Z,13208
2022-11-13T11:07:50.438Z,13090
2022-11-13T11:08:50.856Z,13090
2022-11-13T11:09:50.325Z,13090
2022-11-13T11:10:50.328Z,12537
2022-11-13T11:11:50.349Z,10933
2022-11-13T11:12:50.342Z,7055
2022-11-13T11:13:50.320Z,12028
2022-11-13T11:14:50.322Z,14144
2022-11-13T11:15:50.329Z,8434
2022-11-13T11:16:50.365Z,7892
2022-11-13T11:18:36.341Z,7872
2022-11-13T11:19:35.201Z,9612
2022-11-13T11:20:58.727Z,13973
2022-11-13T11:21:57.709Z,8919
2022-11-13T11:22:57.643Z,13562
2022-11-13T11:23:57.653Z,14329
2022-11-13T11:24:57.640Z,8991
2022-11-13T11:25:57.949Z,11693
2022-11-13T11:26:57.757Z,13562
2022-11-13T11:27:57.648Z,14329
2022-11-13T11:28:57.620Z,12406
2022-11-13T11:29:57.622Z,14238
2022-11-13T11:30:57.995Z,14181
2022-11-13T11:31:57.655Z,14220
2022-11-13T11:32:57.623Z,13849
2022-11-13T11:33:57.636Z,14161
2022-11-13T11:34:59.323Z,13595
2022-11-13T11:35:58.157Z,13816
2022-11-13T11:36:57.755Z,14126
2022-11-13T11:37:57.611Z,14126
2022-11-13T11:38:57.628Z,14271
2022-11-13T11:39:57.634Z,14082
2022-11-13T11:40:57.747Z,13934
2022-11-13T11:41:57.682Z,13969
2022-11-13T11:42:57.627Z,14050
2022-11-13T11:43:57.633Z,13888
2022-11-13T11:44:57.621Z,13801
2022-11-13T11:45:57.690Z,13529
2022-11-13T11:46:57.768Z,13436
2022-11-13T11:47:58.003Z,13805
2022-11-13T11:48:57.682Z,13870
2022-11-13T11:49:57.616Z,13648
2022-11-13T11:50:57.662Z,13530
2022-11-13T11:51:57.631Z,13427
2022-11-13T11:52:57.617Z,13212
2022-11-13T11:53:57.626Z,13790
2022-11-13T11:54:57.616Z,13516
2022-11-13T11:55:57.630Z,13508
2022-11-13T11:56:57.677Z,13536
2022-11-13T11:57:57.641Z,13315
2022-11-13T11:58:57.613Z,13066
2022-11-13T11:59:57.630Z,12961
2022-11-13T12:00:57.630Z,13237
2022-11-13T12:01:57.624Z,13226
2022-11-13T12:02:57.627Z,12850
2022-11-13T12:03:57.619Z,12836
2022-11-13T12:04:57.644Z,12836
2022-11-13T12:05:57.604Z,12974
2022-11-13T12:06:57.795Z,13243
2022-11-13T12:07:57.612Z,13016
2022-11-13T12:08:57.623Z,12705
2022-11-13T12:09:57.639Z,12705
2022-11-13T12:10:57.596Z,12740
2022-11-13T12:11:57.625Z,12472
2022-11-13T12:12:57.615Z,12705
2022-11-13T12:13:57.612Z,12764
2022-11-13T12:14:57.615Z,12813
2022-11-13T12:15:57.602Z,12672
2022-11-13T12:16:57.645Z,12747
2022-11-13T12:17:57.605Z,12683
2022-11-13T12:18:57.610Z,12613
2022-11-13T12:19:57.600Z,12611
2022-11-13T12:20:57.605Z,12590
2022-11-13T12:21:57.611Z,12648
2022-11-13T12:22:57.611Z,12314
2022-11-13T12:23:57.609Z,12235
2022-11-13T12:24:57.606Z,12364
2022-11-13T12:25:57.610Z,12318
2022-11-13T12:26:57.629Z,12143
2022-11-13T12:27:57.632Z,9765
2022-11-13T12:28:57.625Z,6375
2022-11-13T12:29:57.615Z,7697
2022-11-13T12:30:57.612Z,7592
2022-11-13T12:31:57.619Z,5258
2022-11-13T12:32:57.660Z,4862
2022-11-13T12:34:01.292Z,4823
2022-11-13T12:34:57.613Z,5409
2022-11-13T12:35:57.633Z,5413
2022-11-13T12:36:57.627Z,5371
2022-11-13T12:37:57.636Z,9514
2022-11-13T12:38:57.621Z,13571
2022-11-13T12:39:57.671Z,11776
2022-11-13T12:40:57.619Z,11752
2022-11-13T12:41:57.622Z,12566
2022-11-13T12:42:57.665Z,12681
2022-11-13T12:43:57.622Z,12760
2022-11-13T12:44:57.614Z,12808
2022-11-13T12:45:57.618Z,12837
2022-11-13T12:46:57.632Z,12609
2022-11-13T12:47:57.622Z,10078
2022-11-13T12:48:57.606Z,10095
2022-11-13T12:49:57.608Z,12130
2022-11-13T12:50:57.623Z,11217
2022-11-13T12:51:57.625Z,9875
2022-11-13T12:52:57.623Z,12487
2022-11-13T12:53:57.628Z,12487
2022-11-13T12:54:57.854Z,11995
2022-11-13T12:55:57.619Z,11374
2022-11-13T12:56:57.607Z,11374
2022-11-13T12:57:57.634Z,11101
2022-11-13T12:59:15.490Z,10897
2022-11-13T12:59:57.624Z,10673
2022-11-13T13:00:57.666Z,10690
2022-11-13T13:01:57.624Z,10581
2022-11-13T13:02:57.609Z,10915
2022-11-13T13:03:57.614Z,10793
2022-11-13T13:04:57.942Z,10670
2022-11-13T13:05:57.616Z,10257
2022-11-13T13:06:57.668Z,10345
2022-11-13T13:08:00.951Z,11090
2022-11-13T13:08:57.622Z,11090
2022-11-13T13:09:57.598Z,11090
2022-11-13T13:10:57.592Z,10456
2022-11-13T13:11:57.622Z,10578
2022-11-13T13:13:59.706Z,9966
2022-11-13T13:14:58.925Z,9761
2022-11-13T13:15:58.541Z,9282
2022-11-13T13:16:58.660Z,7920
2022-11-13T13:19:32.991Z,8674
2022-11-13T13:21:15.790Z,8329
2022-11-13T13:22:14.701Z,8482
2022-11-13T13:24:16.417Z,8487
2022-11-13T13:25:15.717Z,8309
2022-11-13T13:26:15.312Z,8226
2022-11-13T13:27:40.744Z,8226
2022-11-13T13:28:39.552Z,7992
2022-11-13T13:29:39.526Z,7684
2022-11-13T13:30:39.518Z,7658
2022-11-13T13:31:39.513Z,7542
2022-11-13T13:32:39.505Z,7382
2022-11-13T13:34:09.016Z,6888
2022-11-13T13:35:07.933Z,6821
2022-11-13T13:36:07.922Z,6790
2022-11-13T13:37:07.943Z,6582
2022-11-13T13:38:07.917Z,6513
2022-11-13T13:39:07.918Z,6443
2022-11-13T13:40:08.042Z,6443
2022-11-13T13:41:07.910Z,6373
2022-11-13T13:42:07.923Z,6346
2022-11-13T13:43:07.919Z,6119
2022-11-13T13:44:27.169Z,6159
2022-11-13T13:45:25.991Z,6112
2022-11-13T13:46:25.984Z,6078
2022-11-13T13:47:25.982Z,5992
2022-11-13T13:49:20.927Z,5666
2022-11-13T13:50:19.915Z,5559
2022-11-13T13:51:48.205Z,5490
2022-11-13T13:52:52.647Z,5461